Time;durP1;ratioP1;P1;durP2;ratioP2;P2;SDS_P1;SDS_P2;PMS_P1;PMS_P2;Temp;Humidity;BMP_temperature;BMP_pressure;BME280_temperature;BME280_humidity;BME280_pressure;Samples;Min_cycle;Max_cycle;Signal;HPM_P1;HPM_P2
2022/11/09 00:02:53;;;;;;;3.33;1.00;;;;;;;13.77;66.96;100205.09;6020881;28;20533;-68
2022/11/09 00:05:56;;;;;;;3.03;1.35;;;;;;;13.74;67.02;100197.44;6021120;28;20038;-68
2022/11/09 00:08:51;;;;;;;4.53;1.50;;;;;;;13.74;67.41;100202.78;6021299;28;20038;-67
2022/11/09 00:11:47;;;;;;;2.95;1.23;;;;;;;13.68;67.14;100198.16;6021411;28;20072;-67
2022/11/09 00:14:42;;;;;;;2.55;1.25;;;;;;;13.74;66.88;100200.13;6021627;28;20034;-67
2022/11/09 00:17:38;;;;;;;2.70;1.07;;;;;;;13.75;67.02;100201.78;6021902;28;20030;-68
2022/11/09 00:20:34;;;;;;;3.23;1.40;;;;;;;13.76;67.24;100192.75;6020907;28;20277;-67
2022/11/09 00:23:30;;;;;;;2.78;1.10;;;;;;;13.72;67.28;100186.94;6021350;28;20740;-68
2022/11/09 00:26:25;;;;;;;3.42;1.30;;;;;;;13.69;67.02;100176.69;6026071;28;20045;-68
2022/11/09 00:29:21;;;;;;;3.92;1.25;;;;;;;13.78;67.16;100185.41;6025670;28;20124;-69
2022/11/09 00:32:16;;;;;;;3.77;1.33;;;;;;;13.78;66.98;100173.94;6025555;28;20040;-67
2022/11/09 00:35:11;;;;;;;2.33;1.00;;;;;;;13.75;66.92;100169.81;6025940;28;20034;-67
2022/11/09 00:38:06;;;;;;;2.90;1.20;;;;;;;13.74;67.14;100173.47;6025296;28;20069;-68
2022/11/09 00:41:03;;;;;;;3.27;1.00;;;;;;;13.76;67.32;100175.94;6024574;28;20030;-69
2022/11/09 00:43:58;;;;;;;3.45;1.13;;;;;;;13.68;68.05;100187.50;6024625;28;20964;-69
2022/11/09 00:46:54;;;;;;;1.77;0.90;;;;;;;13.50;68.29;100166.50;6024858;28;20034;-68
2022/11/09 00:49:49;;;;;;;3.27;1.10;;;;;;;13.43;68.12;100164.72;6025114;28;20528;-67
2022/11/09 00:52:44;;;;;;;2.37;0.97;;;;;;;13.40;69.14;100176.56;6024777;28;20270;-68
2022/11/09 00:55:39;;;;;;;5.33;1.03;;;;;;;13.34;69.21;100176.44;6024674;28;20236;-69
2022/11/09 00:58:37;;;;;;;1.80;1.00;;;;;;;13.31;69.17;100176.81;6024819;28;20687;-68
2022/11/09 01:01:33;;;;;;;3.20;1.27;;;;;;;13.33;69.88;100188.09;6024133;28;20046;-69
2022/11/09 01:04:28;;;;;;;3.60;1.08;;;;;;;13.20;70.02;100163.88;6024693;28;20053;-68
2022/11/09 01:07:24;;;;;;;2.03;0.98;;;;;;;13.33;69.95;100180.94;6024755;28;20431;-68
2022/11/09 01:10:19;;;;;;;2.47;1.07;;;;;;;13.40;69.73;100181.88;6024498;28;20022;-68
2022/11/09 01:13:16;;;;;;;1.90;1.00;;;;;;;13.38;69.72;100167.09;6025565;28;20478;-68
2022/11/09 01:16:20;;;;;;;1.38;1.00;;;;;;;13.43;69.86;100170.03;6025142;28;20041;-67
2022/11/09 01:19:15;;;;;;;3.05;0.90;;;;;;;13.47;70.12;100166.03;6024796;28;20031;-66
2022/11/09 01:22:11;;;;;;;4.32;1.00;;;;;;;13.47;69.65;100155.38;6024639;28;20041;-68
2022/11/09 01:25:07;;;;;;;2.57;1.30;;;;;;;13.57;69.81;100166.59;6025068;28;20096;-67
2022/11/09 01:28:03;;;;;;;3.55;1.15;;;;;;;13.65;68.97;100174.53;6024113;28;20026;-67
2022/11/09 01:31:03;;;;;;;2.80;1.10;;;;;;;13.54;69.99;100146.47;6023858;28;20038;-66
2022/11/09 01:33:59;;;;;;;;;;;;;;;13.68;69.41;100171.50;6024338;28;20028;-67
2022/11/09 01:36:54;;;;;;;5.17;1.40;;;;;;;13.60;69.85;100166.25;6023874;28;19914;-67
2022/11/09 01:39:49;;;;;;;2.50;1.10;;;;;;;13.58;70.17;100173.59;6024401;28;20022;-66
2022/11/09 01:42:44;;;;;;;1.87;1.10;;;;;;;13.56;70.03;100164.97;6023571;28;20026;-69
2022/11/09 01:45:40;;;;;;;2.83;1.20;;;;;;;13.52;70.50;100163.66;6023687;28;20129;-66
2022/11/09 01:48:37;;;;;;;3.55;1.42;;;;;;;13.51;70.53;100169.97;6038770;28;20700;-66
2022/11/09 01:51:38;;;;;;;2.83;1.13;;;;;;;13.47;70.50;100160.69;6022172;28;20541;-66
2022/11/09 01:54:40;;;;;;;4.38;1.08;;;;;;;13.55;70.63;100149.97;6038715;28;20045;-67
2022/11/09 01:57:39;;;;;;;1.90;1.10;;;;;;;13.58;70.71;100152.28;6023869;28;20133;-67
2022/11/09 02:00:37;;;;;;;3.13;1.08;;;;;;;13.58;70.75;100158.44;6037933;28;20031;-68
2022/11/09 02:03:39;;;;;;;3.65;1.10;;;;;;;13.61;71.04;100167.91;6022522;28;20030;-67
2022/11/09 02:06:35;;;;;;;3.03;1.20;;;;;;;13.63;70.85;100157.91;6022167;28;20708;-69
2022/11/09 02:09:37;;;;;;;2.50;1.20;;;;;;;13.59;70.54;100154.75;6023508;28;20068;-68
2022/11/09 02:12:34;;;;;;;2.38;1.20;;;;;;;13.51;70.76;100140.66;6022817;28;20038;-68
2022/11/09 02:15:29;;;;;;;2.35;1.10;;;;;;;13.62;71.21;100161.56;6038338;28;20034;-69
2022/11/09 02:18:25;;;;;;;2.30;1.13;;;;;;;13.62;70.91;100164.22;6022554;28;20038;-69
2022/11/09 02:21:22;;;;;;;4.57;1.30;;;;;;;13.63;71.27;100165.91;6022692;28;20262;-68
2022/11/09 02:24:18;;;;;;;2.42;1.20;;;;;;;13.60;71.38;100167.09;6037993;28;20040;-68
2022/11/09 02:27:14;;;;;;;3.78;1.27;;;;;;;13.54;71.68;100157.13;6023086;28;20034;-67
2022/11/09 02:30:11;;;;;;;3.47;1.30;;;;;;;13.53;71.44;100160.78;6022566;28;20434;-68
2022/11/09 02:33:06;;;;;;;2.72;1.20;;;;;;;13.51;71.64;100156.66;6021790;28;20026;-67
2022/11/09 02:36:03;;;;;;;2.77;1.27;;;;;;;13.48;72.45;100155.19;6022626;28;20124;-68
2022/11/09 02:38:58;;;;;;;2.88;1.17;;;;;;;13.41;72.94;100154.25;6022518;28;20172;-69
2022/11/09 02:42:00;;;;;;;5.27;1.50;;;;;;;13.40;72.46;100135.78;6022355;28;20417;-65
2022/11/09 02:44:57;;;;;;;3.85;1.08;;;;;;;13.39;73.01;100139.44;6021315;28;20272;-67
2022/11/09 02:47:52;;;;;;;3.05;1.20;;;;;;;13.34;73.20;100136.50;6022402;28;20033;-68
2022/11/09 02:50:48;;;;;;;2.58;1.23;;;;;;;13.32;73.09;100135.81;6021575;28;20382;-68
2022/11/09 02:53:43;;;;;;;2.17;1.07;;;;;;;13.37;73.11;100144.13;6022930;28;20031;-69
2022/11/09 02:56:38;;;;;;;2.00;1.10;;;;;;;13.36;73.52;100143.31;6022621;28;20150;-68
2022/11/09 02:59:34;;;;;;;2.30;1.25;;;;;;;13.32;73.57;100143.81;6022007;28;20089;-67
2022/11/09 03:02:29;;;;;;;3.28;1.23;;;;;;;13.37;74.27;100144.94;6021778;28;20026;-67
2022/11/09 03:05:25;;;;;;;4.03;1.07;;;;;;;13.27;74.17;100125.72;6021734;28;20027;-68
2022/11/09 03:08:20;;;;;;;3.83;1.30;;;;;;;13.34;74.50;100136.50;6021845;28;20327;-68
2022/11/09 03:11:16;;;;;;;3.50;1.30;;;;;;;13.24;74.51;100130.56;6021649;28;20039;-67
2022/11/09 03:14:11;;;;;;;2.95;1.20;;;;;;;13.28;74.56;100131.88;6020678;28;20039;-68
2022/11/09 03:17:07;;;;;;;2.63;1.10;;;;;;;13.31;73.95;100139.50;6022173;28;20370;-68
2022/11/09 03:20:02;;;;;;;3.83;1.20;;;;;;;13.27;74.94;100128.38;6021642;28;20545;-67
2022/11/09 03:22:58;;;;;;;2.88;1.20;;;;;;;13.27;74.85;100127.53;6021839;28;20027;-67
2022/11/09 03:25:54;;;;;;;1.88;1.00;;;;;;;13.29;75.00;100125.56;6021713;28;20049;-67
2022/11/09 03:28:49;;;;;;;2.30;1.00;;;;;;;13.33;74.74;100126.84;6021336;28;20092;-67
2022/11/09 03:31:44;;;;;;;2.97;1.20;;;;;;;13.28;75.01;100119.41;6021387;28;20729;-67
2022/11/09 03:34:40;;;;;;;3.67;1.10;;;;;;;13.35;74.88;100135.47;6021525;28;20030;-67
2022/11/09 03:37:35;;;;;;;1.95;1.15;;;;;;;13.36;74.71;100143.31;6021833;28;20042;-67
2022/11/09 03:40:30;;;;;;;2.70;1.23;;;;;;;13.41;74.52;100142.75;6021280;28;20034;-68
2022/11/09 03:43:26;;;;;;;2.93;1.20;;;;;;;13.38;74.57;100135.13;6021708;28;20275;-68
2022/11/09 03:46:22;;;;;;;1.77;0.95;;;;;;;13.38;74.99;100129.78;6022134;28;20822;-67
2022/11/09 03:49:17;;;;;;;4.37;1.40;;;;;;;13.45;74.24;100114.78;6021513;28;20042;-67
2022/11/09 03:52:12;;;;;;;2.70;1.30;;;;;;;13.44;74.63;100124.59;6021043;28;20046;-67
2022/11/09 03:55:08;;;;;;;2.77;1.33;;;;;;;13.41;74.75;100119.63;6021643;28;20258;-67
2022/11/09 03:58:04;;;;;;;3.92;1.10;;;;;;;13.44;74.84;100129.09;6021801;28;20760;-69
2022/11/09 04:01:00;;;;;;;3.25;1.10;;;;;;;13.42;74.53;100131.13;6026018;28;20084;-68
2022/11/09 04:03:55;;;;;;;4.03;1.10;;;;;;;13.56;74.45;100138.31;6026087;28;20470;-68
2022/11/09 04:06:50;;;;;;;5.00;1.15;;;;;;;13.45;74.42;100138.75;6026527;28;20356;-69
2022/11/09 04:09:46;;;;;;;3.27;1.33;;;;;;;13.51;74.92;100128.19;6026284;28;20084;-68
2022/11/09 04:12:41;;;;;;;4.57;1.13;;;;;;;13.49;74.84;100138.19;6024966;28;20066;-68
2022/11/09 04:15:36;;;;;;;2.17;1.20;;;;;;;13.41;75.24;100134.78;6025681;28;20361;-67
2022/11/09 04:18:32;;;;;;;1.87;1.10;;;;;;;13.51;75.30;100138.84;6025819;28;20373;-69
2022/11/09 04:21:27;;;;;;;2.85;1.10;;;;;;;13.51;75.56;100140.66;6025180;28;20038;-66
2022/11/09 04:24:22;;;;;;;2.10;1.17;;;;;;;13.44;75.40;100118.44;6025873;28;20117;-68
2022/11/09 04:27:18;;;;;;;2.60;1.30;;;;;;;13.47;75.30;100128.72;6025528;28;20351;-68
2022/11/09 04:30:13;;;;;;;2.47;1.00;;;;;;;13.40;76.28;100125.16;6025234;28;20769;-68
2022/11/09 04:33:08;;;;;;;2.73;1.03;;;;;;;13.33;76.42;100129.50;6025518;28;20085;-67
2022/11/09 04:36:04;;;;;;;2.33;1.27;;;;;;;13.30;76.62;100128.03;6025368;28;20304;-67
2022/11/09 04:38:59;;;;;;;3.58;1.08;;;;;;;13.37;76.91;100144.13;6025334;28;20285;-67
2022/11/09 04:41:55;;;;;;;2.43;1.17;;;;;;;13.28;77.72;100135.38;6039704;28;20127;-67
2022/11/09 04:44:50;;;;;;;2.03;0.93;;;;;;;13.32;77.59;100135.81;6025380;28;20131;-68
2022/11/09 04:47:45;;;;;;;2.23;1.23;;;;;;;13.37;77.92;100149.47;6025672;28;20031;-68
2022/11/09 04:50:41;;;;;;;2.30;1.10;;;;;;;13.33;78.48;100158.81;6024835;28;20043;-68
2022/11/09 04:53:37;;;;;;;3.90;1.20;;;;;;;13.23;78.98;100132.41;6025277;28;20062;-68
2022/11/09 04:56:32;;;;;;;4.35;1.23;;;;;;;13.28;78.88;100140.69;6025035;28;20026;-68
2022/11/09 04:59:27;;;;;;;1.60;0.80;;;;;;;13.33;79.22;100137.50;6024473;28;20076;-68
2022/11/09 05:02:23;;;;;;;3.33;1.23;;;;;;;13.30;78.97;100149.34;6024057;28;20065;-68
2022/11/09 05:05:18;;;;;;;2.97;1.27;;;;;;;13.19;79.54;100151.56;6024933;28;20045;-68
2022/11/09 05:08:13;;;;;;;2.30;1.10;;;;;;;13.09;80.25;100147.31;6024850;28;20030;-68
2022/11/09 05:11:09;;;;;;;2.47;1.20;;;;;;;13.18;80.31;100160.59;6023777;28;20065;-68
2022/11/09 05:14:04;;;;;;;3.07;1.20;;;;;;;13.06;81.17;100150.31;6025296;28;20377;-68
2022/11/09 05:16:59;;;;;;;1.70;0.80;;;;;;;13.24;80.94;100171.34;6024761;28;20022;-68
2022/11/09 05:19:55;;;;;;;1.97;1.00;;;;;;;13.09;81.62;100159.78;6024159;28;20085;-69
2022/11/09 05:26:04;;;;;;;2.65;1.05;;;;;;;13.06;82.47;100157.44;6024525;28;20035;-68
2022/11/09 05:29:02;;;;;;;2.67;1.10;;;;;;;13.01;82.53;100158.00;6024062;28;20494;-67
2022/11/09 05:31:58;;;;;;;2.72;1.23;;;;;;;13.09;83.04;100171.28;6023756;28;20026;-69
2022/11/09 05:34:53;;;;;;;2.60;1.20;;;;;;;13.09;83.07;100179.25;6024465;28;20035;-67
2022/11/09 05:37:49;;;;;;;3.40;1.27;;;;;;;13.03;83.57;100155.97;6024046;28;20062;-68
2022/11/09 05:40:47;;;;;;;3.22;1.20;;;;;;;13.01;84.07;100152.66;6024086;28;20304;-68
2022/11/09 05:43:46;;;;;;;2.60;1.27;;;;;;;12.93;84.14;100152.72;6024230;28;20038;-67
2022/11/09 05:46:41;;;;;;;3.42;1.23;;;;;;;12.92;84.70;100163.50;6024111;28;20038;-68
2022/11/09 05:49:37;;;;;;;2.55;1.20;;;;;;;12.88;85.29;100155.03;6024067;28;20038;-68
2022/11/09 05:52:32;;;;;;;3.00;1.35;;;;;;;12.84;85.69;100152.91;6022326;28;20038;-69
2022/11/09 05:55:28;;;;;;;4.27;1.30;;;;;;;12.80;86.53;100163.06;6024111;28;20034;-68
2022/11/09 05:58:23;;;;;;;2.83;1.40;;;;;;;12.87;86.72;100169.38;6024121;28;20057;-69
2022/11/09 06:01:18;;;;;;;2.53;1.40;;;;;;;12.80;86.72;100168.38;6023589;28;20378;-69
2022/11/09 06:04:14;;;;;;;2.35;1.10;;;;;;;12.77;87.29;100179.41;6024066;28;20100;-68
2022/11/09 06:07:09;;;;;;;3.67;1.20;;;;;;;12.70;87.64;100178.41;6023448;28;20049;-69
2022/11/09 06:10:05;;;;;;;5.17;1.63;;;;;;;12.58;88.40;100168.34;6023291;28;20118;-69
2022/11/09 06:13:01;;;;;;;2.67;1.45;;;;;;;12.55;88.32;100177.50;6023706;28;20269;-69
2022/11/09 06:15:59;;;;;;;3.15;1.40;;;;;;;12.53;88.95;100188.28;6023944;28;20042;-68
2022/11/09 06:18:54;;;;;;;2.25;1.27;;;;;;;12.53;89.02;100177.66;6022820;28;20436;-69
2022/11/09 06:21:50;;;;;;;2.33;1.30;;;;;;;12.64;88.72;100183.63;6021626;28;20038;-67
2022/11/09 06:24:45;;;;;;;2.08;1.00;;;;;;;12.72;88.48;100181.72;6023651;28;20073;-68
2022/11/09 06:27:40;;;;;;;3.00;1.20;;;;;;;12.82;88.21;100194.84;6023379;28;20096;-68
2022/11/09 06:30:36;;;;;;;3.05;1.55;;;;;;;12.73;88.12;100194.03;6023041;28;20088;-68
2022/11/09 06:33:32;;;;;;;3.13;1.23;;;;;;;12.73;88.38;100183.41;6023333;28;20131;-68
2022/11/09 06:36:27;;;;;;;2.95;1.10;;;;;;;12.79;88.30;100174.72;6022726;28;20422;-67
2022/11/09 06:39:23;;;;;;;2.00;1.20;;;;;;;12.87;88.05;100195.16;6023529;28;20096;-68
2022/11/09 06:42:18;;;;;;;3.13;1.20;;;;;;;12.74;88.17;100185.06;6022526;28;20066;-68
2022/11/09 06:45:13;;;;;;;2.37;1.03;;;;;;;12.77;88.33;100183.88;6022855;28;20026;-67
2022/11/09 06:48:09;;;;;;;2.75;1.25;;;;;;;12.78;88.15;100162.41;6023152;28;20045;-67
2022/11/09 06:51:05;;;;;;;3.42;1.45;;;;;;;12.75;88.20;100169.91;6022125;28;20022;-68
2022/11/09 06:54:01;;;;;;;4.43;1.67;;;;;;;12.83;88.54;100194.66;6016305;28;20142;-67
2022/11/09 06:56:56;;;;;;;2.53;1.27;;;;;;;12.77;88.38;100174.09;6017749;28;20039;-68
2022/11/09 06:59:51;;;;;;;3.53;1.53;;;;;;;12.83;87.83;100181.34;6018787;28;20030;-68
2022/11/09 07:02:46;;;;;;;3.07;1.20;;;;;;;12.91;87.75;100197.28;6012670;28;20674;-67
2022/11/09 07:05:42;;;;;;;2.73;1.10;;;;;;;12.90;88.06;100195.63;6021916;28;20646;-68
2022/11/09 07:08:38;;;;;;;2.08;1.25;;;;;;;12.85;87.91;100184.69;6022088;28;20030;-68
2022/11/09 07:11:33;;;;;;;2.70;1.30;;;;;;;12.89;87.45;100190.47;6021647;28;20038;-67
2022/11/09 07:14:28;;;;;;;2.07;1.20;;;;;;;12.95;87.25;100195.94;6022302;28;20031;-68
2022/11/09 07:17:24;;;;;;;4.27;1.47;;;;;;;13.01;87.51;100202.41;6022119;28;20065;-68
2022/11/09 07:20:19;;;;;;;2.77;1.33;;;;;;;13.02;87.14;100191.56;6021174;28;20060;-68
2022/11/09 07:23:14;;;;;;;2.70;1.37;;;;;;;13.06;87.03;100203.53;6021463;28;20413;-67
2022/11/09 07:26:10;;;;;;;3.65;1.33;;;;;;;13.11;86.95;100211.88;6021093;28;20300;-67
2022/11/09 07:29:05;;;;;;;1.93;1.30;;;;;;;13.09;86.83;100213.03;6020835;28;20089;-67
2022/11/09 07:32:01;;;;;;;1.95;1.13;;;;;;;13.10;86.79;100215.50;6021218;28;20053;-67
2022/11/09 07:34:56;;;;;;;2.33;1.20;;;;;;;13.01;86.75;100203.25;6021604;28;20045;-68
2022/11/09 07:37:51;;;;;;;3.33;1.20;;;;;;;13.07;87.27;100213.19;6022122;28;20077;-67
2022/11/09 07:40:47;;;;;;;4.00;1.23;;;;;;;13.13;87.10;100213.53;6021415;28;20045;-69
2022/11/09 07:43:42;;;;;;;2.43;1.10;;;;;;;13.06;87.13;100208.88;6021967;28;20137;-67
2022/11/09 07:46:37;;;;;;;2.57;1.10;;;;;;;13.27;86.94;100220.75;6021660;28;20371;-67
2022/11/09 07:49:34;;;;;;;5.05;1.55;;;;;;;13.27;85.99;100210.09;6020591;28;20572;-67
2022/11/09 07:52:29;;;;;;;3.17;1.00;;;;;;;13.43;85.51;100202.84;6020400;28;20374;-67
2022/11/09 07:55:25;;;;;;;2.97;1.10;;;;;;;13.71;85.16;100225.28;6020711;28;20110;-68
2022/11/09 07:58:20;;;;;;;3.92;1.05;;;;;;;14.01;83.43;100220.03;6021799;28;20483;-67
2022/11/09 08:01:16;;;;;;;4.33;1.00;;;;;;;14.22;82.70;100213.00;6020864;28;20163;-67
2022/11/09 08:04:11;;;;;;;2.43;1.00;;;;;;;14.47;80.88;100204.78;6021667;28;20041;-67
2022/11/09 08:07:06;;;;;;;1.40;0.95;;;;;;;14.75;80.36;100227.16;6020794;28;20270;-67
2022/11/09 08:10:02;;;;;;;2.20;1.10;;;;;;;14.75;79.98;100229.81;6021324;28;20027;-68
2022/11/09 08:13:01;;;;;;;3.50;1.20;;;;;;;14.69;79.92;100218.03;6021716;28;20061;-69
2022/11/09 08:16:00;;;;;;;2.30;1.00;;;;;;;14.51;80.39;100230.91;6020768;28;20042;-67
2022/11/09 08:18:55;;;;;;;3.47;0.77;;;;;;;14.59;80.37;100232.69;6022027;28;20022;-68
2022/11/09 08:21:56;;;;;;;3.40;1.37;;;;;;;14.49;80.48;100227.59;6020022;28;20045;-67
2022/11/09 08:24:51;;;;;;;2.75;1.40;;;;;;;14.43;81.43;100239.00;6020049;28;20276;-68
2022/11/09 08:27:46;;;;;;;11.50;1.57;;;;;;;14.38;81.20;100224.56;6021973;28;20026;-68
2022/11/09 08:30:43;;;;;;;1.73;1.10;;;;;;;14.41;81.56;100234.84;6019642;28;20446;-68
2022/11/09 08:33:40;;;;;;;3.40;1.20;;;;;;;14.40;81.63;100225.22;6020556;28;20089;-67
2022/11/09 08:36:35;;;;;;;1.42;1.00;;;;;;;14.46;81.68;100229.81;6021200;28;20034;-67
2022/11/09 08:39:31;;;;;;;2.33;1.00;;;;;;;14.21;82.53;100216.66;6020971;28;21542;-67
2022/11/09 08:42:26;;;;;;;2.87;1.03;;;;;;;14.22;82.26;100221.00;6020927;28;20541;-67
2022/11/09 08:45:21;;;;;;;3.90;1.20;;;;;;;14.36;82.10;100234.56;6022562;28;20030;-68
2022/11/09 08:48:17;;;;;;;2.87;0.90;;;;;;;14.19;82.90;100226.69;6025451;28;20042;-67
2022/11/09 08:51:12;;;;;;;2.30;1.00;;;;;;;14.23;82.73;100238.69;6024812;28;20269;-66
2022/11/09 08:54:10;;;;;;;2.60;1.02;;;;;;;14.22;82.53;100246.84;6024180;28;20070;-68
2022/11/09 08:57:05;;;;;;;3.17;1.13;;;;;;;14.17;82.53;100238.56;6041028;28;20201;-68
2022/11/09 09:00:02;;;;;;;3.37;1.10;;;;;;;14.25;82.22;100234.00;6024989;28;20394;-67
2022/11/09 09:02:57;;;;;;;2.42;0.82;;;;;;;14.27;82.39;100239.97;6025405;28;20026;-69
2022/11/09 09:05:53;;;;;;;1.50;0.70;;;;;;;14.37;81.39;100244.25;6013490;28;20042;-70
2022/11/09 09:08:49;;;;;;;3.25;1.05;;;;;;;14.36;81.38;100231.91;6025323;28;20042;-71
2022/11/09 09:11:48;;;;;;;2.20;0.80;;;;;;;14.52;80.94;100251.25;6024930;28;20026;-69
2022/11/09 09:14:44;;;;;;;1.10;0.70;;;;;;;14.62;81.08;100259.00;6023600;28;20124;-68
2022/11/09 09:17:39;;;;;;;1.83;0.83;;;;;;;14.45;81.76;100249.50;6025334;28;20038;-68
2022/11/09 09:20:35;;;;;;;2.17;0.93;;;;;;;14.27;83.87;100266.63;6025953;28;20033;-68
2022/11/09 09:23:30;;;;;;;4.57;1.37;;;;;;;13.80;88.77;100290.03;6025591;28;20587;-69
2022/11/09 09:26:25;;;;;;;2.57;1.00;;;;;;;13.37;92.53;100288.75;6024997;28;20268;-68
2022/11/09 09:29:20;;;;;;;2.83;1.30;;;;;;;13.09;95.99;100314.19;6024673;28;20285;-70
2022/11/09 09:32:16;;;;;;;2.90;0.90;;;;;;;12.82;98.44;100303.94;6023893;28;20033;-68
2022/11/09 09:35:11;;;;;;;2.23;1.20;;;;;;;12.61;100.00;100290.38;6024147;28;20034;-67
2022/11/09 09:38:07;;;;;;;3.00;1.48;;;;;;;12.59;100.00;100293.16;6024190;28;20029;-67
2022/11/09 09:41:04;;;;;;;4.90;1.40;;;;;;;12.49;100.00;100298.69;6023630;28;20121;-67
2022/11/09 09:44:10;;;;;;;1.98;1.20;;;;;;;12.29;100.00;100280.56;6022704;28;20482;-67
2022/11/09 09:47:11;;;;;;;4.53;1.40;;;;;;;12.26;100.00;100283.56;6023473;28;20838;-68
2022/11/09 09:50:13;;;;;;;4.55;1.50;;;;;;;12.28;100.00;100286.91;6023841;28;20038;-67
2022/11/09 09:53:21;;;;;;;2.85;1.20;;;;;;;12.32;100.00;100288.22;6023498;28;20110;-67
2022/11/09 09:56:27;;;;;;;3.72;1.25;;;;;;;12.31;100.00;100306.00;6015679;28;20045;-66
2022/11/09 09:59:27;;;;;;;4.07;1.65;;;;;;;12.27;100.00;100306.50;6023243;28;20027;-68
2022/11/09 10:02:25;;;;;;;2.15;1.30;;;;;;;12.17;100.00;100282.78;6023152;28;20030;-67
2022/11/09 10:05:39;;;;;;;5.22;1.27;;;;;;;12.06;100.00;100283.09;6024047;28;20113;-69
2022/11/09 10:08:46;;;;;;;5.03;1.13;;;;;;;12.09;100.00;100300.53;6022591;28;20049;-66
2022/11/09 10:11:48;;;;;;;3.20;1.30;;;;;;;12.10;100.00;100297.69;6023304;28;20526;-68
2022/11/09 10:14:54;;;;;;;2.92;1.02;;;;;;;12.15;100.00;100313.97;6023812;28;20022;-67
2022/11/09 10:17:50;;;;;;;;;;;;;;;12.19;100.00;100307.34;6024542;28;20026;-67
2022/11/09 10:21:22;;;;;;;4.85;1.50;;;;;;;12.21;100.00;100309.81;6023153;28;20000;-68
2022/11/09 10:24:27;;;;;;;;;;;;;;;12.22;100.00;100306.19;6024211;28;20030;-67
2022/11/09 10:27:36;;;;;;;3.22;1.02;;;;;;;12.20;100.00;100305.53;6023486;28;20024;-67
2022/11/09 10:30:32;;;;;;;3.67;1.50;;;;;;;12.20;100.00;100308.19;6023004;28;20045;-69
2022/11/09 10:33:27;;;;;;;2.42;0.88;;;;;;;12.18;100.00;100307.50;6023298;28;20389;-67
2022/11/09 10:36:27;;;;;;;5.20;1.20;;;;;;;12.14;100.00;100298.22;6023581;28;20773;-67
2022/11/09 10:39:25;;;;;;;1.77;0.70;;;;;;;12.09;100.00;100289.91;6018899;28;20459;-68
2022/11/09 10:42:20;;;;;;;1.85;0.85;;;;;;;12.21;100.00;100285.91;6018099;28;20053;-67
2022/11/09 10:45:37;;;;;;;1.38;0.80;;;;;;;12.20;100.00;100269.13;6023211;28;20038;-67
2022/11/09 10:48:37;;;;;;;1.13;0.60;;;;;;;12.19;100.00;100285.25;6022608;28;20053;-67
2022/11/09 10:51:46;;;;;;;2.63;0.70;;;;;;;12.17;100.00;100292.56;6021157;28;20030;-68
2022/11/09 10:54:41;;;;;;;1.40;0.90;;;;;;;12.07;100.00;100286.56;6022879;28;20407;-68
2022/11/09 10:57:58;;;;;;;2.23;0.93;;;;;;;12.01;100.00;100303.19;6023307;28;20026;-67
2022/11/09 11:01:01;;;;;;;2.25;0.90;;;;;;;11.97;100.00;100292.06;6015002;28;20030;-68
2022/11/09 11:03:56;;;;;;;2.38;1.60;;;;;;;11.92;100.00;100289.91;6037847;28;20084;-68
2022/11/09 11:06:51;;;;;;;3.03;1.00;;;;;;;11.94;100.00;100303.00;6022550;28;20042;-68
2022/11/09 11:09:47;;;;;;;3.77;1.00;;;;;;;11.86;100.00;100290.56;6022513;28;20034;-67
2022/11/09 11:13:01;;;;;;;5.47;0.90;;;;;;;11.77;100.00;100291.53;6022186;28;20281;-68
2022/11/09 11:15:57;;;;;;;1.98;0.57;;;;;;;11.74;100.00;100296.38;6022737;28;20752;-67
2022/11/09 11:18:53;;;;;;;0.88;0.60;;;;;;;11.64;100.00;100280.53;6021296;28;20030;-68
2022/11/09 11:22:08;;;;;;;2.10;0.65;;;;;;;11.76;100.00;100303.16;6021397;28;20049;-67
2022/11/09 11:25:23;;;;;;;2.72;0.80;;;;;;;11.85;100.00;100288.88;6019033;28;20088;-67
2022/11/09 11:28:26;;;;;;;3.75;0.80;;;;;;;11.96;100.00;100278.94;6022060;28;20031;-68
2022/11/09 11:31:21;;;;;;;3.08;0.70;;;;;;;12.05;100.00;100273.47;6019816;28;20038;-68
2022/11/09 11:34:17;;;;;;;2.50;0.80;;;;;;;12.06;100.00;100285.75;6016717;28;20041;-68
2022/11/09 11:37:29;;;;;;;1.47;0.67;;;;;;;12.15;100.00;100262.66;6021690;28;20038;-68
2022/11/09 11:40:29;;;;;;;2.95;0.82;;;;;;;12.29;100.00;100272.59;6020142;28;20037;-68
2022/11/09 11:43:28;;;;;;;5.60;3.00;;;;;;;12.36;100.00;100286.91;6022222;28;20037;-67
2022/11/09 11:46:40;;;;;;;6.18;2.42;;;;;;;12.35;100.00;100290.56;6037306;28;20041;-67
2022/11/09 11:50:20;;;;;;;3.60;1.60;;;;;;;12.44;100.00;100285.06;6037446;28;20478;-68
2022/11/09 11:53:27;;;;;;;3.75;1.20;;;;;;;12.47;100.00;100290.03;6021147;28;20517;-67
2022/11/09 11:56:42;;;;;;;2.58;0.90;;;;;;;12.56;100.00;100282.88;6022097;28;20034;-68
2022/11/09 11:59:57;;;;;;;1.90;0.98;;;;;;;12.59;100.00;100279.88;6020254;28;20057;-68
2022/11/09 12:03:04;;;;;;;2.22;0.85;;;;;;;12.76;100.00;100289.47;6021972;28;20030;-68
2022/11/09 12:06:38;;;;;;;1.35;1.00;;;;;;;12.76;100.00;100278.00;6021862;28;20050;-67
2022/11/09 12:09:39;;;;;;;2.28;1.00;;;;;;;12.68;100.00;100292.16;6009836;28;20046;-67
2022/11/09 12:13:02;;;;;;;1.67;0.90;;;;;;;12.72;100.00;100295.31;6021614;28;20030;-67
2022/11/09 12:16:09;;;;;;;2.00;0.70;;;;;;;12.73;100.00;100303.13;6021848;28;20466;-67
2022/11/09 12:19:17;;;;;;;2.05;0.95;;;;;;;12.59;100.00;100302.97;6020057;28;20042;-66
2022/11/09 12:22:46;;;;;;;1.85;1.00;;;;;;;12.41;100.00;100298.69;6024674;28;20088;-67
2022/11/09 12:25:41;;;;;;;1.83;0.90;;;;;;;12.31;100.00;100305.19;6025796;28;20404;-66
2022/11/09 12:28:54;;;;;;;5.25;1.90;;;;;;;12.12;100.00;100287.72;6023918;28;20054;-66
2022/11/09 12:32:04;;;;;;;4.60;1.13;;;;;;;12.20;100.00;100277.09;6036267;28;20042;-67
2022/11/09 12:35:02;;;;;;;3.13;1.08;;;;;;;12.21;100.00;100285.91;6041573;28;20069;-66
2022/11/09 12:38:05;;;;;;;4.00;0.85;;;;;;;12.19;100.00;100275.44;6026500;28;20066;-66
2022/11/09 12:41:09;;;;;;;7.65;2.08;;;;;;;12.22;100.00;100266.31;6017953;28;20031;-67
2022/11/09 12:44:14;;;;;;;13.70;6.05;;;;;;;12.42;100.00;100267.59;6022504;28;20038;-66
2022/11/09 12:47:26;;;;;;;4.55;1.80;;;;;;;12.54;100.00;100264.44;6025716;28;20034;-66
2022/11/09 12:50:24;;;;;;;3.80;1.25;;;;;;;12.78;100.00;100287.47;6023503;28;20038;-67
2022/11/09 12:53:22;;;;;;;5.82;1.92;;;;;;;12.76;100.00;100289.47;6023799;28;20050;-68
2022/11/09 12:56:23;;;;;;;6.43;2.13;;;;;;;12.78;100.00;100276.84;6024140;28;20053;-67
2022/11/09 12:59:47;;;;;;;7.20;1.45;;;;;;;12.84;100.00;100307.25;6016574;28;20085;-67
2022/11/09 13:02:56;;;;;;;5.60;1.30;;;;;;;12.98;100.00;100262.13;6016092;28;20074;-68
2022/11/09 13:06:16;;;;;;;4.15;1.15;;;;;;;13.28;100.00;100302.31;6012805;28;20742;-67
2022/11/09 13:09:16;;;;;;;6.30;1.30;;;;;;;13.20;100.00;100291.69;6020860;28;20055;-67
2022/11/09 13:12:33;;;;;;;4.13;1.52;;;;;;;13.27;100.00;100287.31;6011425;28;20038;-68
2022/11/09 13:15:30;;;;;;;3.85;1.27;;;;;;;13.10;100.00;100282.06;6025273;28;20118;-68
2022/11/09 13:18:47;;;;;;;5.25;2.50;;;;;;;13.05;100.00;100288.88;6024993;28;20474;-68
2022/11/09 13:21:42;;;;;;;6.68;2.08;;;;;;;13.03;100.00;100290.88;6024773;28;20046;-68
2022/11/09 13:24:58;;;;;;;5.13;2.03;;;;;;;13.08;100.00;100299.22;6024779;28;20149;-68
2022/11/09 13:27:53;;;;;;;5.75;1.70;;;;;;;13.04;100.00;100282.72;6021396;28;20269;-68
2022/11/09 13:30:49;;;;;;;3.83;1.48;;;;;;;13.09;100.00;100284.91;6020898;28;20493;-67
2022/11/09 13:33:44;;;;;;;5.07;1.17;;;;;;;13.11;100.00;100285.56;6020037;28;20038;-67
2022/11/09 13:36:39;;;;;;;6.60;1.30;;;;;;;13.21;100.00;100280.06;6024178;28;20409;-68
2022/11/09 13:39:36;;;;;;;7.67;2.70;;;;;;;13.26;100.00;100281.19;6024245;28;20112;-67
2022/11/09 13:42:33;;;;;;;4.38;1.80;;;;;;;13.39;100.00;100289.44;6024113;28;20777;-67
2022/11/09 13:45:32;;;;;;;4.95;1.45;;;;;;;13.20;100.00;100275.72;6022938;28;20073;-69
2022/11/09 13:48:36;;;;;;;5.20;1.50;;;;;;;13.43;100.00;100298.72;6023386;28;20048;-69
2022/11/09 13:51:32;;;;;;;2.30;1.00;;;;;;;13.40;100.00;100292.94;6023618;28;20031;-68
2022/11/09 13:54:35;;;;;;;2.47;0.83;;;;;;;13.23;100.00;100280.69;6024160;28;20053;-68